createdAt,value
2022-11-21T05:18:00.130Z,8.25
2022-11-21T05:20:26.683Z,2.67
2022-11-21T05:22:53.256Z,4.78
2022-11-21T05:25:19.783Z,4.30
2022-11-21T05:27:46.343Z,4.05
2022-11-21T05:30:13.000Z,5.22
2022-11-21T05:32:39.467Z,3.17
2022-11-21T05:35:07.470Z,3.30
2022-11-21T05:37:33.944Z,4.22
2022-11-21T05:40:09.695Z,4.13
2022-11-21T05:42:58.372Z,3.53
2022-11-21T05:45:24.865Z,4.60
2022-11-21T05:47:51.384Z,7.93
2022-11-21T05:50:20.137Z,7.10
2022-11-21T05:52:46.928Z,6.22
2022-11-21T05:55:13.511Z,3.80
2022-11-21T05:57:40.137Z,2.80
2022-11-21T06:00:07.268Z,4.13
2022-11-21T06:02:52.692Z,3.80
2022-11-21T06:05:19.310Z,2.78
2022-11-21T06:07:46.004Z,2.45
2022-11-21T06:10:12.539Z,4.35
2022-11-21T06:12:38.981Z,3.88
2022-11-21T06:15:05.784Z,2.80
2022-11-21T06:17:32.544Z,2.08
2022-11-21T06:24:24.075Z,3.88
2022-11-21T06:26:50.489Z,5.88
2022-11-21T06:29:16.940Z,5.07
2022-11-21T06:31:43.381Z,6.32
2022-11-21T06:34:09.816Z,5.43
2022-11-21T06:36:37.225Z,6.50
2022-11-21T06:39:03.976Z,9.48
2022-11-21T06:41:31.866Z,6.45
2022-11-21T06:44:00.810Z,4.90
2022-11-21T06:46:27.750Z,5.72
2022-11-21T06:48:54.443Z,4.35
2022-11-21T06:51:22.954Z,6.25
2022-11-21T06:53:55.863Z,6.43
2022-11-21T06:56:32.566Z,5.22
2022-11-21T06:58:59.342Z,7.28
2022-11-21T07:01:25.885Z,13.02
2022-11-21T07:03:53.103Z,7.70
2022-11-21T07:06:19.660Z,5.30
2022-11-21T07:08:46.248Z,3.08
2022-11-21T07:11:29.826Z,5.63
2022-11-21T07:13:56.581Z,1.30
2022-11-21T07:16:32.493Z,4.03
2022-11-21T07:19:00.251Z,4.63
2022-11-21T07:21:32.922Z,10.02
2022-11-21T07:23:59.629Z,4.07
2022-11-21T07:26:26.058Z,6.82
2022-11-21T07:28:53.422Z,5.45
2022-11-21T07:31:19.873Z,8.75
2022-11-21T07:33:47.571Z,6.30
2022-11-21T07:36:14.117Z,7.03
2022-11-21T07:38:42.159Z,5.57
2022-11-21T07:41:10.010Z,7.47
2022-11-21T07:43:36.562Z,10.70
2022-11-21T07:46:03.035Z,7.43
2022-11-21T07:48:29.478Z,11.13
2022-11-21T07:51:06.002Z,5.53
2022-11-21T07:53:32.628Z,6.18
2022-11-21T07:55:59.855Z,4.72
2022-11-21T07:58:26.717Z,2.97
2022-11-21T08:00:53.770Z,10.65
2022-11-21T08:03:20.477Z,3.40
2022-11-21T08:05:47.379Z,4.38
2022-11-21T08:08:14.410Z,5.57
2022-11-21T08:10:43.131Z,6.63
2022-11-21T08:13:12.743Z,3.50
2022-11-21T08:15:39.613Z,7.00
2022-11-21T08:18:14.385Z,6.03
2022-11-21T08:20:41.628Z,4.55
2022-11-21T08:23:09.928Z,8.07
2022-11-21T08:25:40.891Z,6.40
2022-11-21T08:28:36.644Z,2.97
2022-11-21T08:31:07.157Z,5.80
2022-11-21T08:33:34.735Z,4.18
2022-11-21T08:36:21.449Z,6.15
2022-11-21T08:38:47.903Z,3.80
2022-11-21T08:41:33.295Z,3.70
2022-11-21T08:44:00.065Z,5.55
2022-11-21T08:46:28.151Z,1.98
2022-11-21T08:48:56.815Z,2.63
2022-11-21T08:51:23.326Z,6.03
2022-11-21T08:53:50.495Z,2.90
2022-11-21T08:56:16.945Z,3.67
2022-11-21T08:58:46.703Z,7.65
2022-11-21T09:01:13.225Z,8.07
2022-11-21T09:03:39.697Z,4.95
2022-11-21T09:06:06.611Z,6.40
2022-11-21T09:08:33.116Z,2.67
2022-11-21T09:11:04.656Z,3.60
2022-11-21T09:13:31.411Z,6.55
2022-11-21T09:16:20.431Z,9.07
2022-11-21T09:18:47.651Z,4.00
2022-11-21T09:21:18.562Z,4.00
2022-11-21T09:23:45.331Z,4.32
2022-11-21T09:26:12.174Z,7.60
2022-11-21T09:28:41.349Z,4.00
2022-11-21T09:31:08.670Z,5.00
2022-11-21T09:33:35.649Z,5.70
2022-11-21T09:36:02.079Z,2.15
2022-11-21T09:38:30.063Z,2.03
2022-11-21T09:41:37.394Z,7.65
2022-11-21T09:44:47.343Z,3.95
2022-11-21T09:47:23.234Z,1.13
2022-11-21T09:49:56.988Z,3.30
2022-11-21T09:52:30.774Z,1.98
2022-11-21T09:55:01.179Z,5.55
2022-11-21T09:57:32.118Z,6.57
2022-11-21T10:00:04.069Z,4.32
2022-11-21T10:02:40.009Z,2.08
2022-11-21T10:05:13.130Z,4.68
2022-11-21T10:07:40.388Z,5.47
2022-11-21T10:10:22.395Z,5.20
2022-11-21T10:13:13.213Z,3.78
2022-11-21T10:15:48.674Z,2.50
2022-11-21T10:18:54.501Z,0.50
2022-11-21T10:21:45.349Z,0.70
2022-11-21T10:24:35.962Z,0.65
2022-11-21T10:27:14.581Z,4.90
2022-11-21T10:29:57.152Z,3.67
2022-11-21T10:32:39.141Z,0.82
2022-11-21T10:35:15.144Z,2.53
2022-11-21T10:38:01.894Z,2.38
2022-11-21T10:40:47.298Z,3.58
2022-11-21T10:43:35.526Z,1.15
2022-11-21T10:46:01.976Z,2.28
2022-11-21T10:48:28.552Z,0.80
2022-11-21T10:51:13.305Z,2.05
2022-11-21T10:54:03.200Z,2.35
2022-11-21T10:56:35.473Z,3.00
2022-11-21T10:59:13.858Z,2.25
2022-11-21T11:01:40.404Z,0.90
2022-11-21T11:04:29.007Z,1.27
2022-11-21T11:06:57.321Z,2.65
2022-11-21T11:09:34.603Z,3.10
2022-11-21T11:12:25.083Z,2.63
2022-11-21T11:14:54.792Z,1.90
2022-11-21T11:17:33.751Z,3.92
2022-11-21T11:20:30.076Z,3.70
2022-11-21T11:22:56.567Z,1.60
2022-11-21T11:25:23.368Z,2.42
2022-11-21T11:27:49.836Z,3.63
2022-11-21T11:30:19.776Z,1.48
2022-11-21T11:32:48.052Z,4.15
2022-11-21T11:35:21.980Z,3.33
2022-11-21T11:38:17.074Z,5.03
2022-11-21T11:40:47.696Z,2.80
2022-11-21T11:43:50.643Z,1.52
2022-11-21T11:46:55.093Z,7.45
2022-11-21T11:49:52.972Z,0.32
2022-11-21T11:52:24.445Z,1.85
2022-11-21T11:54:58.298Z,2.05
2022-11-21T11:57:26.747Z,0.40
2022-11-21T12:00:19.617Z,3.83
2022-11-21T12:02:54.384Z,6.40
2022-11-21T12:05:25.607Z,5.38
2022-11-21T12:11:32.409Z,1.10
2022-11-21T12:14:38.670Z,1.83
2022-11-21T12:17:08.871Z,2.42
2022-11-21T12:19:37.464Z,1.92
2022-11-21T12:22:06.565Z,4.30
2022-11-21T12:24:42.528Z,2.00
2022-11-21T12:27:52.605Z,3.13
2022-11-21T12:31:17.186Z,4.47
2022-11-21T12:34:02.877Z,2.08
2022-11-21T12:36:43.780Z,1.08
2022-11-21T12:39:59.290Z,3.33
2022-11-21T12:42:50.085Z,3.90
2022-11-21T12:45:50.229Z,1.95
2022-11-21T12:48:55.628Z,0.70
2022-11-21T12:51:52.818Z,1.73
2022-11-21T12:54:50.196Z,2.75
2022-11-21T12:58:16.379Z,3.13
2022-11-21T13:01:03.507Z,2.28
2022-11-21T13:03:45.416Z,7.80
2022-11-21T13:06:28.690Z,1.88
2022-11-21T13:08:59.414Z,2.78
2022-11-21T13:12:00.433Z,4.43
2022-11-21T13:15:05.424Z,3.03
2022-11-21T13:20:16.990Z,3.67
2022-11-21T13:22:43.681Z,2.08
2022-11-21T13:25:40.197Z,0.68
2022-11-21T13:28:20.121Z,3.05
2022-11-21T13:30:47.183Z,3.05
2022-11-21T13:33:35.651Z,7.28
2022-11-21T13:36:05.825Z,1.02
2022-11-21T13:38:53.687Z,4.20
2022-11-21T13:41:54.246Z,4.63
2022-11-21T13:44:38.268Z,2.45
2022-11-21T13:47:26.476Z,1.65
2022-11-21T13:50:15.949Z,1.75
2022-11-21T13:53:02.234Z,4.40
2022-11-21T13:55:44.865Z,0.75
2022-11-21T13:58:16.705Z,1.33
2022-11-21T14:01:08.570Z,5.88
2022-11-21T14:04:06.254Z,4.50
2022-11-21T14:07:16.856Z,7.97
2022-11-21T14:09:49.236Z,2.47
2022-11-21T14:12:33.828Z,4.25
2022-11-21T14:15:25.481Z,1.95
2022-11-21T14:17:57.247Z,0.73
2022-11-21T14:20:27.710Z,8.20
2022-11-21T14:22:57.285Z,3.28
2022-11-21T14:25:47.678Z,5.00
2022-11-21T14:28:26.866Z,3.42
2022-11-21T14:31:08.703Z,4.40
2022-11-21T14:33:42.756Z,4.65
2022-11-21T14:39:20.852Z,3.13
2022-11-21T14:41:44.813Z,1.35
2022-11-21T14:44:38.588Z,2.58
2022-11-21T14:47:23.607Z,4.10
2022-11-21T14:49:58.539Z,3.88
2022-11-21T14:52:31.451Z,5.60
2022-11-21T14:55:32.937Z,4.15
2022-11-21T14:57:46.766Z,1.90
2022-11-21T15:00:51.319Z,3.70
2022-11-21T15:03:19.546Z,2.55
2022-11-21T15:06:05.021Z,2.60
2022-11-21T15:11:22.763Z,4.90
2022-11-21T15:14:15.965Z,5.43
2022-11-21T15:16:50.875Z,5.82
2022-11-21T15:21:54.875Z,4.63
2022-11-21T15:24:42.174Z,5.28
2022-11-21T15:27:27.008Z,6.07
2022-11-21T15:30:12.875Z,6.72
2022-11-21T15:33:01.311Z,4.47
2022-11-21T15:35:49.242Z,4.32
2022-11-21T15:38:24.274Z,11.00
2022-11-21T15:41:10.116Z,12.02
2022-11-21T15:43:48.154Z,5.20
2022-11-21T15:46:17.951Z,9.25
2022-11-21T15:48:47.027Z,8.43
2022-11-21T15:51:14.126Z,8.13
2022-11-21T15:53:40.797Z,7.20
2022-11-21T15:56:21.356Z,7.65
2022-11-21T15:58:49.880Z,5.75
2022-11-21T16:01:22.677Z,4.97
2022-11-21T16:03:53.458Z,8.40
2022-11-21T16:06:34.569Z,12.18
2022-11-21T16:09:02.942Z,12.10
2022-11-21T16:11:37.371Z,10.23
2022-11-21T16:14:07.269Z,14.85
2022-11-21T16:16:42.656Z,14.20
2022-11-21T16:19:38.916Z,22.95
2022-11-21T16:22:05.461Z,9.27
2022-11-21T16:24:32.136Z,11.25
2022-11-21T16:26:58.682Z,7.30
2022-11-21T16:29:25.221Z,7.60
2022-11-21T16:31:52.281Z,6.13
2022-11-21T16:34:22.973Z,11.43
2022-11-21T16:36:50.680Z,5.97
2022-11-21T16:39:20.811Z,6.93
2022-11-21T16:41:49.400Z,8.43
2022-11-21T16:44:19.557Z,7.13
2022-11-21T16:47:15.357Z,13.32
2022-11-21T16:49:49.009Z,17.83
2022-11-21T16:52:25.249Z,11.18
2022-11-21T16:55:02.895Z,7.03
2022-11-21T16:57:30.078Z,8.65
2022-11-21T17:06:06.272Z,12.80
2022-11-21T17:14:39.282Z,10.65
2022-11-21T17:17:09.019Z,7.78
2022-11-21T17:19:35.622Z,7.10
2022-11-21T17:22:04.912Z,11.80
2022-11-21T17:24:34.623Z,13.40
2022-11-21T17:27:03.835Z,14.73
2022-11-21T17:29:30.665Z,9.25
2022-11-21T17:31:57.398Z,9.43
2022-11-21T17:34:29.783Z,10.45
2022-11-21T17:37:09.026Z,13.10
2022-11-21T17:39:36.596Z,8.68
2022-11-21T17:42:03.659Z,10.85
2022-11-21T17:44:31.437Z,9.77
2022-11-21T17:46:59.877Z,6.78
2022-11-21T17:49:27.100Z,11.25
2022-11-21T17:51:56.607Z,10.30
2022-11-21T17:54:23.568Z,9.57
2022-11-21T17:56:56.475Z,8.57
2022-11-21T17:59:23.451Z,10.20
2022-11-21T18:01:50.001Z,10.95
2022-11-21T18:04:17.750Z,5.07
2022-11-21T18:06:44.560Z,12.05
2022-11-21T18:09:11.828Z,10.90
2022-11-21T18:11:40.428Z,10.73
2022-11-21T18:14:09.260Z,5.68
2022-11-21T18:16:39.310Z,9.25
2022-11-21T18:19:05.968Z,10.43
2022-11-21T18:21:38.199Z,7.00
2022-11-21T18:24:05.053Z,9.13
2022-11-21T18:26:34.124Z,10.05
2022-11-21T18:29:35.073Z,12.57
2022-11-21T18:31:53.393Z,9.90
2022-11-21T18:34:20.125Z,10.43
2022-11-21T18:36:47.701Z,4.47
2022-11-21T18:39:18.094Z,8.98
2022-11-21T18:41:44.805Z,13.27
2022-11-21T18:44:19.991Z,11.80
2022-11-21T18:46:48.504Z,6.50
2022-11-21T18:49:15.191Z,14.50
2022-11-21T18:51:41.718Z,5.82
2022-11-21T18:54:10.975Z,8.95
2022-11-21T18:56:39.062Z,6.75
2022-11-21T18:59:11.267Z,6.47
2022-11-21T19:01:39.700Z,8.68
2022-11-21T19:04:06.580Z,9.32
2022-11-21T19:06:33.149Z,12.00
2022-11-21T19:09:01.765Z,10.65
2022-11-21T19:11:29.996Z,11.27
2022-11-21T19:14:16.138Z,7.30
2022-11-21T19:16:48.221Z,13.55
2022-11-21T19:19:35.512Z,8.50
2022-11-21T19:22:07.429Z,7.60
2022-11-21T19:24:33.988Z,10.82
2022-11-21T19:27:00.512Z,8.90
2022-11-21T19:29:27.289Z,9.85
2022-11-21T19:31:54.211Z,7.47
2022-11-21T19:34:20.849Z,7.40
2022-11-21T19:36:47.415Z,9.30
2022-11-21T19:39:19.328Z,12.25
2022-11-21T19:41:50.524Z,9.20
2022-11-21T19:44:17.116Z,8.00
2022-11-21T19:46:43.808Z,11.00
2022-11-21T19:49:11.478Z,12.35
2022-11-21T19:51:41.875Z,9.90
2022-11-21T19:54:12.181Z,9.20
2022-11-21T19:56:39.213Z,11.63
2022-11-21T19:59:06.032Z,4.18
2022-11-21T20:01:41.817Z,8.23
2022-11-21T20:04:14.443Z,8.93
2022-11-21T20:06:46.267Z,7.32
2022-11-21T20:09:42.094Z,8.52
2022-11-21T20:12:11.526Z,10.15
2022-11-21T20:14:41.027Z,7.00
2022-11-21T20:17:09.822Z,5.32
2022-11-21T20:19:36.335Z,7.72
2022-11-21T20:22:02.817Z,10.35
2022-11-21T20:24:29.903Z,11.30
2022-11-21T20:26:56.560Z,14.93
2022-11-21T20:29:53.307Z,7.18
2022-11-21T20:32:19.840Z,5.88
2022-11-21T20:34:48.499Z,10.30
2022-11-21T20:37:14.934Z,10.55
2022-11-21T20:39:41.382Z,10.93
2022-11-21T20:42:08.207Z,5.15
2022-11-21T20:45:30.040Z,5.03
2022-11-21T20:47:25.408Z,11.15
2022-11-21T20:49:52.794Z,13.15
2022-11-21T20:55:06.917Z,8.10
2022-11-21T20:57:33.520Z,4.97
2022-11-21T21:00:00.015Z,8.55
2022-11-21T21:02:26.544Z,6.55
2022-11-21T21:05:04.979Z,12.77
2022-11-21T21:07:37.616Z,5.15
2022-11-21T21:10:05.769Z,6.28
2022-11-21T21:12:32.977Z,9.63
2022-11-21T21:15:10.632Z,10.60
2022-11-21T21:17:37.431Z,6.82
2022-11-21T21:20:04.329Z,5.32
2022-11-21T21:22:30.795Z,4.40
2022-11-21T21:24:57.652Z,7.47
2022-11-21T21:27:24.167Z,8.02
2022-11-21T21:29:51.666Z,5.75
2022-11-21T21:32:18.449Z,6.55
2022-11-21T21:34:45.098Z,5.03
2022-11-21T21:37:12.798Z,9.60
2022-11-21T21:39:39.370Z,5.50
2022-11-21T21:42:06.172Z,10.35
2022-11-21T21:44:33.703Z,7.13
2022-11-21T21:47:04.552Z,6.32
2022-11-21T21:49:31.139Z,6.15
2022-11-21T21:51:57.905Z,8.45
2022-11-21T21:54:27.222Z,12.05
2022-11-21T21:56:58.209Z,5.95
2022-11-21T21:59:27.829Z,5.50
2022-11-21T22:01:59.419Z,4.60
2022-11-21T22:04:26.221Z,5.38
2022-11-21T22:06:53.099Z,5.50
2022-11-21T22:09:20.114Z,2.83
2022-11-21T22:11:46.881Z,5.90
2022-11-21T22:14:15.766Z,6.80
2022-11-21T22:16:43.372Z,4.72
2022-11-21T22:19:09.888Z,3.15
2022-11-21T22:21:37.628Z,3.83
2022-11-21T22:24:27.474Z,3.67
2022-11-21T22:26:54.288Z,4.82
2022-11-21T22:29:20.764Z,3.63
2022-11-21T22:31:47.215Z,5.18
2022-11-21T22:34:14.360Z,5.38
2022-11-21T22:36:41.588Z,7.63
2022-11-21T22:39:08.384Z,3.60
2022-11-21T22:41:35.127Z,5.43
2022-11-21T22:44:01.744Z,3.35
2022-11-21T22:46:29.318Z,4.40
2022-11-21T22:48:56.473Z,3.78
2022-11-21T22:51:26.428Z,3.53
2022-11-21T22:53:53.038Z,3.05
2022-11-21T22:56:21.623Z,3.13
2022-11-21T22:58:49.088Z,5.05
